sensor_id;sensor_type;location;lat;lon;timestamp;P1;durP1;ratioP1;P2;durP2;ratioP2
1753;SDS011;58380;48.312;9.246;2023-04-24T07:01:00;2.42;;;1.40;;
1753;SDS011;58380;48.312;9.246;2023-04-24T07:29:08;1.98;;;1.10;;
1753;SDS011;58380;48.312;9.246;2023-04-24T07:34:39;1.75;;;1.10;;
1753;SDS011;58380;48.312;9.246;2023-04-24T07:40:40;2.13;;;1.10;;
1753;SDS011;58380;48.312;9.246;2023-04-24T07:43:27;4.70;;;1.70;;
1753;SDS011;58380;48.312;9.246;2023-04-24T07:46:01;6.10;;;1.60;;
1753;SDS011;58380;48.312;9.246;2023-04-24T07:52:02;1.65;;;0.68;;
1753;SDS011;58380;48.312;9.246;2023-04-24T07:57:49;3.38;;;0.93;;
1753;SDS011;58380;48.312;9.246;2023-04-24T08:00:15;2.25;;;1.00;;
1753;SDS011;58380;48.312;9.246;2023-04-24T08:02:44;2.53;;;1.33;;
1753;SDS011;58380;48.312;9.246;2023-04-24T08:05:12;1.60;;;0.80;;
1753;SDS011;58380;48.312;9.246;2023-04-24T08:07:58;1.13;;;0.75;;
1753;SDS011;58380;48.312;9.246;2023-04-24T08:10:26;1.67;;;1.13;;
1753;SDS011;58380;48.312;9.246;2023-04-24T08:12:52;2.05;;;1.10;;
1753;SDS011;58380;48.312;9.246;2023-04-24T08:15:17;2.93;;;1.30;;
1753;SDS011;58380;48.312;9.246;2023-04-24T08:17:58;1.75;;;1.10;;
1753;SDS011;58380;48.312;9.246;2023-04-24T08:20:31;2.67;;;1.30;;
1753;SDS011;58380;48.312;9.246;2023-04-24T08:22:56;4.47;;;1.55;;
1753;SDS011;58380;48.312;9.246;2023-04-24T08:26:07;3.00;;;1.20;;
1753;SDS011;58380;48.312;9.246;2023-04-24T08:28:42;3.38;;;1.50;;
1753;SDS011;58380;48.312;9.246;2023-04-24T08:31:07;2.80;;;1.42;;
1753;SDS011;58380;48.312;9.246;2023-04-24T08:33:33;3.13;;;1.47;;
1753;SDS011;58380;48.312;9.246;2023-04-24T08:36:02;2.22;;;1.38;;
1753;SDS011;58380;48.312;9.246;2023-04-24T08:38:29;2.58;;;1.48;;
1753;SDS011;58380;48.312;9.246;2023-04-24T08:40:58;3.13;;;1.42;;
1753;SDS011;58380;48.312;9.246;2023-04-24T08:43:30;5.25;;;1.33;;
1753;SDS011;58380;48.312;9.246;2023-04-24T08:46:04;4.05;;;1.42;;
1753;SDS011;58380;48.312;9.246;2023-04-24T08:48:38;3.10;;;1.20;;
1753;SDS011;58380;48.312;9.246;2023-04-24T08:51:28;3.20;;;1.30;;
1753;SDS011;58380;48.312;9.246;2023-04-24T08:53:56;3.33;;;1.42;;
1753;SDS011;58380;48.312;9.246;2023-04-24T08:56:25;2.45;;;1.55;;
1753;SDS011;58380;48.312;9.246;2023-04-24T08:58:53;1.95;;;1.25;;
1753;SDS011;58380;48.312;9.246;2023-04-24T09:01:19;4.95;;;1.35;;
1753;SDS011;58380;48.312;9.246;2023-04-24T09:03:46;2.13;;;1.42;;
1753;SDS011;58380;48.312;9.246;2023-04-24T09:06:23;4.00;;;1.70;;
1753;SDS011;58380;48.312;9.246;2023-04-24T09:08:53;11.20;;;3.42;;
1753;SDS011;58380;48.312;9.246;2023-04-24T09:11:20;5.75;;;1.60;;
1753;SDS011;58380;48.312;9.246;2023-04-24T09:13:49;4.40;;;1.48;;
1753;SDS011;58380;48.312;9.246;2023-04-24T09:16:16;1.90;;;1.25;;
1753;SDS011;58380;48.312;9.246;2023-04-24T09:18:41;4.18;;;1.40;;
1753;SDS011;58380;48.312;9.246;2023-04-24T09:21:07;4.00;;;1.60;;
1753;SDS011;58380;48.312;9.246;2023-04-24T09:23:37;3.97;;;1.40;;
1753;SDS011;58380;48.312;9.246;2023-04-24T09:26:03;3.85;;;1.70;;
1753;SDS011;58380;48.312;9.246;2023-04-24T09:28:34;4.35;;;1.83;;
1753;SDS011;58380;48.312;9.246;2023-04-24T09:31:12;2.60;;;1.33;;
1753;SDS011;58380;48.312;9.246;2023-04-24T09:33:56;3.65;;;2.00;;
1753;SDS011;58380;48.312;9.246;2023-04-24T09:36:29;3.58;;;1.70;;
1753;SDS011;58380;48.312;9.246;2023-04-24T09:39:00;5.78;;;1.92;;
1753;SDS011;58380;48.312;9.246;2023-04-24T09:41:27;3.83;;;1.83;;
1753;SDS011;58380;48.312;9.246;2023-04-24T09:43:54;4.85;;;2.50;;
1753;SDS011;58380;48.312;9.246;2023-04-24T09:46:30;4.68;;;2.05;;
1753;SDS011;58380;48.312;9.246;2023-04-24T09:49:06;3.28;;;1.70;;
1753;SDS011;58380;48.312;9.246;2023-04-24T09:51:36;2.90;;;1.45;;
1753;SDS011;58380;48.312;9.246;2023-04-24T09:54:16;3.72;;;1.30;;
1753;SDS011;58380;48.312;9.246;2023-04-24T09:56:45;4.25;;;1.60;;
1753;SDS011;58380;48.312;9.246;2023-04-24T09:59:19;3.92;;;1.65;;
1753;SDS011;58380;48.312;9.246;2023-04-24T10:01:45;3.17;;;1.63;;
1753;SDS011;58380;48.312;9.246;2023-04-24T10:06:48;2.42;;;1.30;;
1753;SDS011;58380;48.312;9.246;2023-04-24T10:09:18;2.67;;;1.20;;
1753;SDS011;58380;48.312;9.246;2023-04-24T10:11:47;2.97;;;1.30;;
1753;SDS011;58380;48.312;9.246;2023-04-24T10:14:16;2.15;;;1.17;;
1753;SDS011;58380;48.312;9.246;2023-04-24T10:16:47;4.10;;;1.30;;
1753;SDS011;58380;48.312;9.246;2023-04-24T10:19:15;5.03;;;1.65;;
1753;SDS011;58380;48.312;9.246;2023-04-24T10:21:43;3.00;;;1.40;;
1753;SDS011;58380;48.312;9.246;2023-04-24T10:24:13;3.13;;;1.38;;
1753;SDS011;58380;48.312;9.246;2023-04-24T10:26:41;2.78;;;1.55;;
1753;SDS011;58380;48.312;9.246;2023-04-24T10:29:10;3.15;;;1.33;;
1753;SDS011;58380;48.312;9.246;2023-04-24T10:31:37;3.00;;;1.63;;
1753;SDS011;58380;48.312;9.246;2023-04-24T10:34:05;2.88;;;1.83;;
1753;SDS011;58380;48.312;9.246;2023-04-24T10:36:35;3.42;;;1.88;;
1753;SDS011;58380;48.312;9.246;2023-04-24T10:39:09;3.65;;;2.00;;
1753;SDS011;58380;48.312;9.246;2023-04-24T10:41:40;5.60;;;2.00;;
1753;SDS011;58380;48.312;9.246;2023-04-24T10:44:12;4.27;;;1.63;;
1753;SDS011;58380;48.312;9.246;2023-04-24T10:46:43;4.07;;;1.90;;
1753;SDS011;58380;48.312;9.246;2023-04-24T10:49:13;4.78;;;1.73;;
1753;SDS011;58380;48.312;9.246;2023-04-24T10:59:50;5.28;;;1.88;;
1753;SDS011;58380;48.312;9.246;2023-04-24T11:02:45;3.38;;;1.65;;
1753;SDS011;58380;48.312;9.246;2023-04-24T11:19:23;5.95;;;1.92;;
1753;SDS011;58380;48.312;9.246;2023-04-24T11:21:58;5.70;;;1.58;;
1753;SDS011;58380;48.312;9.246;2023-04-24T11:24:39;3.75;;;1.20;;
1753;SDS011;58380;48.312;9.246;2023-04-24T11:27:17;2.67;;;1.00;;
1753;SDS011;58380;48.312;9.246;2023-04-24T11:35:05;2.08;;;1.15;;
1753;SDS011;58380;48.312;9.246;2023-04-24T11:37:41;2.40;;;1.17;;
1753;SDS011;58380;48.312;9.246;2023-04-24T11:40:19;1.98;;;1.10;;
1753;SDS011;58380;48.312;9.246;2023-04-24T11:42:51;6.60;;;0.90;;
1753;SDS011;58380;48.312;9.246;2023-04-24T11:45:24;3.33;;;1.05;;
1753;SDS011;58380;48.312;9.246;2023-04-24T11:47:52;1.63;;;0.90;;
1753;SDS011;58380;48.312;9.246;2023-04-24T11:50:19;2.97;;;1.30;;
1753;SDS011;58380;48.312;9.246;2023-04-24T11:52:47;1.88;;;0.88;;
1753;SDS011;58380;48.312;9.246;2023-04-24T11:57:47;0.93;;;0.60;;
1753;SDS011;58380;48.312;9.246;2023-04-24T12:00:16;1.50;;;0.65;;
1753;SDS011;58380;48.312;9.246;2023-04-24T12:02:43;1.27;;;0.55;;
1753;SDS011;58380;48.312;9.246;2023-04-24T12:05:09;2.35;;;0.60;;
1753;SDS011;58380;48.312;9.246;2023-04-24T12:07:55;1.60;;;0.95;;
1753;SDS011;58380;48.312;9.246;2023-04-24T12:10:21;2.03;;;0.60;;
1753;SDS011;58380;48.312;9.246;2023-04-24T12:12:49;1.38;;;0.60;;
1753;SDS011;58380;48.312;9.246;2023-04-24T12:15:16;3.67;;;0.60;;
1753;SDS011;58380;48.312;9.246;2023-04-24T12:17:44;0.93;;;0.60;;
1753;SDS011;58380;48.312;9.246;2023-04-24T12:20:10;1.45;;;0.68;;
1753;SDS011;58380;48.312;9.246;2023-04-24T12:22:44;2.42;;;0.75;;
1753;SDS011;58380;48.312;9.246;2023-04-24T12:25:21;2.72;;;1.30;;
1753;SDS011;58380;48.312;9.246;2023-04-24T12:28:08;3.50;;;0.90;;
1753;SDS011;58380;48.312;9.246;2023-04-24T12:30:41;1.88;;;0.70;;
1753;SDS011;58380;48.312;9.246;2023-04-24T12:33:16;1.90;;;0.95;;
1753;SDS011;58380;48.312;9.246;2023-04-24T12:35:45;1.05;;;0.60;;
1753;SDS011;58380;48.312;9.246;2023-04-24T12:38:11;2.65;;;1.25;;
1753;SDS011;58380;48.312;9.246;2023-04-24T12:40:43;2.35;;;1.00;;
1753;SDS011;58380;48.312;9.246;2023-04-24T12:43:15;4.15;;;0.98;;
1753;SDS011;58380;48.312;9.246;2023-04-24T12:45:43;2.20;;;0.80;;
1753;SDS011;58380;48.312;9.246;2023-04-24T12:48:12;1.48;;;0.70;;
1753;SDS011;58380;48.312;9.246;2023-04-24T12:50:38;0.90;;;0.57;;
1753;SDS011;58380;48.312;9.246;2023-04-24T12:53:04;2.25;;;1.00;;
1753;SDS011;58380;48.312;9.246;2023-04-24T12:55:33;2.13;;;0.95;;
1753;SDS011;58380;48.312;9.246;2023-04-24T12:57:58;4.07;;;1.20;;
1753;SDS011;58380;48.312;9.246;2023-04-24T13:00:24;3.53;;;0.75;;
1753;SDS011;58380;48.312;9.246;2023-04-24T13:02:50;2.88;;;1.00;;
1753;SDS011;58380;48.312;9.246;2023-04-24T13:05:16;1.50;;;1.00;;
1753;SDS011;58380;48.312;9.246;2023-04-24T13:07:41;1.95;;;1.10;;
1753;SDS011;58380;48.312;9.246;2023-04-24T13:10:07;3.80;;;1.20;;
1753;SDS011;58380;48.312;9.246;2023-04-24T13:12:33;2.25;;;0.82;;
1753;SDS011;58380;48.312;9.246;2023-04-24T13:15:00;3.08;;;0.80;;
1753;SDS011;58380;48.312;9.246;2023-04-24T13:17:26;2.00;;;0.90;;
1753;SDS011;58380;48.312;9.246;2023-04-24T13:19:53;1.43;;;0.90;;
1753;SDS011;58380;48.312;9.246;2023-04-24T13:22:20;2.35;;;1.00;;
1753;SDS011;58380;48.312;9.246;2023-04-24T13:24:46;4.25;;;1.08;;
1753;SDS011;58380;48.312;9.246;2023-04-24T13:27:13;5.38;;;0.75;;
1753;SDS011;58380;48.312;9.246;2023-04-24T13:29:39;1.58;;;0.80;;
1753;SDS011;58380;48.312;9.246;2023-04-24T13:32:05;1.42;;;0.85;;
1753;SDS011;58380;48.312;9.246;2023-04-24T13:34:31;1.60;;;0.90;;
1753;SDS011;58380;48.312;9.246;2023-04-24T13:36:56;4.27;;;0.80;;
1753;SDS011;58380;48.312;9.246;2023-04-24T13:39:24;2.28;;;0.90;;
1753;SDS011;58380;48.312;9.246;2023-04-24T13:41:50;2.28;;;1.08;;
1753;SDS011;58380;48.312;9.246;2023-04-24T13:44:16;2.20;;;1.10;;
1753;SDS011;58380;48.312;9.246;2023-04-24T13:46:44;1.30;;;0.70;;
1753;SDS011;58380;48.312;9.246;2023-04-24T13:49:13;1.02;;;0.70;;
1753;SDS011;58380;48.312;9.246;2023-04-24T13:51:40;2.00;;;0.98;;
1753;SDS011;58380;48.312;9.246;2023-04-24T13:54:07;1.25;;;0.60;;
1753;SDS011;58380;48.312;9.246;2023-04-24T13:56:35;1.93;;;0.83;;
1753;SDS011;58380;48.312;9.246;2023-04-24T13:59:03;2.47;;;0.88;;
1753;SDS011;58380;48.312;9.246;2023-04-24T14:01:28;3.57;;;0.80;;
1753;SDS011;58380;48.312;9.246;2023-04-24T14:03:55;5.93;;;0.70;;
1753;SDS011;58380;48.312;9.246;2023-04-24T14:06:21;0.70;;;0.63;;
1753;SDS011;58380;48.312;9.246;2023-04-24T14:08:47;4.60;;;0.88;;
1753;SDS011;58380;48.312;9.246;2023-04-24T14:11:15;1.15;;;0.60;;
1753;SDS011;58380;48.312;9.246;2023-04-24T14:13:42;0.93;;;0.70;;
1753;SDS011;58380;48.312;9.246;2023-04-24T14:16:08;3.47;;;0.68;;
1753;SDS011;58380;48.312;9.246;2023-04-24T14:18:35;3.40;;;1.40;;
1753;SDS011;58380;48.312;9.246;2023-04-24T14:21:01;2.35;;;1.15;;
1753;SDS011;58380;48.312;9.246;2023-04-24T14:23:27;2.67;;;0.95;;
1753;SDS011;58380;48.312;9.246;2023-04-24T14:25:53;3.50;;;0.90;;
1753;SDS011;58380;48.312;9.246;2023-04-24T14:28:19;2.95;;;1.08;;
1753;SDS011;58380;48.312;9.246;2023-04-24T14:30:46;3.53;;;0.80;;
1753;SDS011;58380;48.312;9.246;2023-04-24T14:33:12;1.30;;;0.80;;
1753;SDS011;58380;48.312;9.246;2023-04-24T14:35:39;1.05;;;0.70;;
1753;SDS011;58380;48.312;9.246;2023-04-24T14:38:08;0.90;;;0.55;;
1753;SDS011;58380;48.312;9.246;2023-04-24T14:40:33;1.50;;;0.90;;
1753;SDS011;58380;48.312;9.246;2023-04-24T14:43:02;1.70;;;1.00;;
1753;SDS011;58380;48.312;9.246;2023-04-24T14:45:27;3.15;;;1.33;;
1753;SDS011;58380;48.312;9.246;2023-04-24T14:50:20;2.78;;;1.10;;
1753;SDS011;58380;48.312;9.246;2023-04-24T14:52:46;1.35;;;0.82;;
1753;SDS011;58380;48.312;9.246;2023-04-24T14:55:12;1.17;;;0.70;;
1753;SDS011;58380;48.312;9.246;2023-04-24T14:57:38;2.33;;;1.00;;
1753;SDS011;58380;48.312;9.246;2023-04-24T15:00:04;3.17;;;1.00;;
1753;SDS011;58380;48.312;9.246;2023-04-24T15:02:33;1.98;;;1.00;;
1753;SDS011;58380;48.312;9.246;2023-04-24T15:04:59;1.88;;;1.00;;
1753;SDS011;58380;48.312;9.246;2023-04-24T15:07:25;4.20;;;1.17;;
1753;SDS011;58380;48.312;9.246;2023-04-24T15:09:50;2.53;;;0.70;;
1753;SDS011;58380;48.312;9.246;2023-04-24T15:12:16;2.58;;;0.93;;
1753;SDS011;58380;48.312;9.246;2023-04-24T15:14:42;1.30;;;0.75;;
1753;SDS011;58380;48.312;9.246;2023-04-24T15:17:09;4.20;;;1.20;;
1753;SDS011;58380;48.312;9.246;2023-04-24T15:19:35;2.10;;;1.20;;
1753;SDS011;58380;48.312;9.246;2023-04-24T15:22:00;1.60;;;0.90;;
1753;SDS011;58380;48.312;9.246;2023-04-24T15:24:26;1.60;;;0.80;;
1753;SDS011;58380;48.312;9.246;2023-04-24T15:26:51;2.53;;;1.27;;
1753;SDS011;58380;48.312;9.246;2023-04-24T15:29:18;3.50;;;1.10;;
1753;SDS011;58380;48.312;9.246;2023-04-24T15:31:43;1.73;;;0.97;;
1753;SDS011;58380;48.312;9.246;2023-04-24T15:34:09;2.08;;;0.80;;
1753;SDS011;58380;48.312;9.246;2023-04-24T15:36:35;5.22;;;1.05;;
1753;SDS011;58380;48.312;9.246;2023-04-24T15:39:01;3.45;;;0.98;;
1753;SDS011;58380;48.312;9.246;2023-04-24T15:41:27;1.45;;;0.85;;
1753;SDS011;58380;48.312;9.246;2023-04-24T15:43:53;1.38;;;0.88;;
1753;SDS011;58380;48.312;9.246;2023-04-24T15:46:18;3.13;;;1.63;;
1753;SDS011;58380;48.312;9.246;2023-04-24T15:48:44;1.95;;;1.00;;
1753;SDS011;58380;48.312;9.246;2023-04-24T15:51:12;4.05;;;2.00;;
1753;SDS011;58380;48.312;9.246;2023-04-24T15:53:38;1.75;;;0.90;;
1753;SDS011;58380;48.312;9.246;2023-04-24T15:56:04;1.67;;;1.00;;
1753;SDS011;58380;48.312;9.246;2023-04-24T15:58:29;2.45;;;0.90;;
1753;SDS011;58380;48.312;9.246;2023-04-24T16:00:55;2.83;;;1.35;;
1753;SDS011;58380;48.312;9.246;2023-04-24T16:03:21;2.28;;;1.20;;
1753;SDS011;58380;48.312;9.246;2023-04-24T16:05:46;2.40;;;1.23;;
1753;SDS011;58380;48.312;9.246;2023-04-24T16:08:12;2.88;;;1.33;;
1753;SDS011;58380;48.312;9.246;2023-04-24T16:10:40;3.08;;;1.08;;
1753;SDS011;58380;48.312;9.246;2023-04-24T16:13:06;3.67;;;1.48;;
1753;SDS011;58380;48.312;9.246;2023-04-24T16:15:34;2.00;;;1.30;;
1753;SDS011;58380;48.312;9.246;2023-04-24T16:18:00;3.30;;;1.35;;
1753;SDS011;58380;48.312;9.246;2023-04-24T16:20:26;2.90;;;1.42;;
1753;SDS011;58380;48.312;9.246;2023-04-24T16:22:51;1.77;;;1.40;;
1753;SDS011;58380;48.312;9.246;2023-04-24T16:25:17;2.55;;;1.23;;
1753;SDS011;58380;48.312;9.246;2023-04-24T16:27:42;2.58;;;1.50;;
1753;SDS011;58380;48.312;9.246;2023-04-24T16:30:08;2.00;;;1.30;;
1753;SDS011;58380;48.312;9.246;2023-04-24T16:32:35;2.22;;;1.20;;
1753;SDS011;58380;48.312;9.246;2023-04-24T16:35:00;1.70;;;1.10;;
1753;SDS011;58380;48.312;9.246;2023-04-24T16:37:27;2.90;;;1.52;;
1753;SDS011;58380;48.312;9.246;2023-04-24T16:39:54;3.88;;;1.65;;
1753;SDS011;58380;48.312;9.246;2023-04-24T16:42:20;5.25;;;1.70;;
1753;SDS011;58380;48.312;9.246;2023-04-24T16:44:46;3.72;;;1.90;;
1753;SDS011;58380;48.312;9.246;2023-04-24T16:47:12;4.13;;;1.90;;
1753;SDS011;58380;48.312;9.246;2023-04-24T16:49:41;3.40;;;1.83;;
1753;SDS011;58380;48.312;9.246;2023-04-24T16:52:07;5.15;;;1.95;;
1753;SDS011;58380;48.312;9.246;2023-04-24T16:54:34;5.50;;;1.90;;
1753;SDS011;58380;48.312;9.246;2023-04-24T16:57:00;3.65;;;1.98;;
1753;SDS011;58380;48.312;9.246;2023-04-24T16:59:27;6.25;;;1.98;;
1753;SDS011;58380;48.312;9.246;2023-04-24T17:01:54;2.58;;;1.20;;
1753;SDS011;58380;48.312;9.246;2023-04-24T17:04:20;4.07;;;1.45;;
1753;SDS011;58380;48.312;9.246;2023-04-24T17:06:45;2.37;;;1.20;;
1753;SDS011;58380;48.312;9.246;2023-04-24T17:09:11;3.07;;;1.40;;
1753;SDS011;58380;48.312;9.246;2023-04-24T17:11:38;2.80;;;1.45;;
1753;SDS011;58380;48.312;9.246;2023-04-24T17:14:03;4.23;;;1.73;;
1753;SDS011;58380;48.312;9.246;2023-04-24T17:16:30;4.20;;;2.33;;
1753;SDS011;58380;48.312;9.246;2023-04-24T17:18:55;2.47;;;1.30;;
1753;SDS011;58380;48.312;9.246;2023-04-24T17:21:21;2.93;;;1.40;;
1753;SDS011;58380;48.312;9.246;2023-04-24T17:23:46;2.83;;;1.60;;
1753;SDS011;58380;48.312;9.246;2023-04-24T17:26:12;4.40;;;1.40;;
1753;SDS011;58380;48.312;9.246;2023-04-24T17:28:37;1.63;;;1.00;;
1753;SDS011;58380;48.312;9.246;2023-04-24T17:31:03;2.90;;;1.52;;
1753;SDS011;58380;48.312;9.246;2023-04-24T17:33:29;3.30;;;1.13;;
1753;SDS011;58380;48.312;9.246;2023-04-24T17:35:55;2.38;;;1.00;;
1753;SDS011;58380;48.312;9.246;2023-04-24T17:38:26;3.88;;;1.35;;
1753;SDS011;58380;48.312;9.246;2023-04-24T17:40:52;2.60;;;1.58;;
1753;SDS011;58380;48.312;9.246;2023-04-24T17:43:21;2.22;;;1.23;;
1753;SDS011;58380;48.312;9.246;2023-04-24T17:45:48;5.07;;;1.70;;
1753;SDS011;58380;48.312;9.246;2023-04-24T17:48:17;6.60;;;1.60;;
1753;SDS011;58380;48.312;9.246;2023-04-24T17:50:43;3.10;;;1.20;;
1753;SDS011;58380;48.312;9.246;2023-04-24T17:53:10;2.13;;;1.25;;
1753;SDS011;58380;48.312;9.246;2023-04-24T17:58:03;2.20;;;1.13;;
1753;SDS011;58380;48.312;9.246;2023-04-24T18:00:29;4.82;;;1.38;;
1753;SDS011;58380;48.312;9.246;2023-04-24T18:02:56;3.17;;;1.25;;
1753;SDS011;58380;48.312;9.246;2023-04-24T18:05:29;3.08;;;1.30;;
1753;SDS011;58380;48.312;9.246;2023-04-24T18:07:56;3.83;;;2.40;;
1753;SDS011;58380;48.312;9.246;2023-04-24T18:10:23;4.57;;;2.13;;
1753;SDS011;58380;48.312;9.246;2023-04-24T18:12:51;1.80;;;1.27;;
1753;SDS011;58380;48.312;9.246;2023-04-24T18:15:17;4.50;;;1.70;;
1753;SDS011;58380;48.312;9.246;2023-04-24T18:20:09;6.45;;;2.25;;
1753;SDS011;58380;48.312;9.246;2023-04-24T18:22:37;3.88;;;2.38;;
1753;SDS011;58380;48.312;9.246;2023-04-24T18:25:03;3.80;;;1.23;;
1753;SDS011;58380;48.312;9.246;2023-04-24T18:29:56;3.53;;;1.60;;
1753;SDS011;58380;48.312;9.246;2023-04-24T18:32:22;6.40;;;2.03;;
1753;SDS011;58380;48.312;9.246;2023-04-24T18:34:47;3.53;;;2.20;;
1753;SDS011;58380;48.312;9.246;2023-04-24T18:37:13;2.95;;;1.55;;
1753;SDS011;58380;48.312;9.246;2023-04-24T18:39:39;3.97;;;1.37;;
1753;SDS011;58380;48.312;9.246;2023-04-24T18:42:05;4.43;;;1.70;;
1753;SDS011;58380;48.312;9.246;2023-04-24T18:44:30;2.95;;;1.17;;
1753;SDS011;58380;48.312;9.246;2023-04-24T18:46:56;4.77;;;1.87;;
1753;SDS011;58380;48.312;9.246;2023-04-24T18:49:21;8.10;;;3.13;;
1753;SDS011;58380;48.312;9.246;2023-04-24T18:51:46;4.30;;;2.37;;
1753;SDS011;58380;48.312;9.246;2023-04-24T18:54:12;2.47;;;1.40;;
1753;SDS011;58380;48.312;9.246;2023-04-24T18:56:37;3.37;;;1.63;;
1753;SDS011;58380;48.312;9.246;2023-04-24T18:59:03;3.33;;;1.60;;
1753;SDS011;58380;48.312;9.246;2023-04-24T19:01:28;2.77;;;1.37;;
1753;SDS011;58380;48.312;9.246;2023-04-24T19:03:55;5.80;;;1.65;;
1753;SDS011;58380;48.312;9.246;2023-04-24T19:06:21;2.27;;;1.20;;
1753;SDS011;58380;48.312;9.246;2023-04-24T19:08:46;2.63;;;1.80;;
1753;SDS011;58380;48.312;9.246;2023-04-24T19:11:12;3.43;;;1.70;;
1753;SDS011;58380;48.312;9.246;2023-04-24T19:13:37;2.53;;;1.57;;
1753;SDS011;58380;48.312;9.246;2023-04-24T19:16:03;2.60;;;1.50;;
1753;SDS011;58380;48.312;9.246;2023-04-24T19:18:28;2.90;;;1.70;;
1753;SDS011;58380;48.312;9.246;2023-04-24T19:20:54;7.20;;;1.70;;
1753;SDS011;58380;48.312;9.246;2023-04-24T19:23:20;4.00;;;1.80;;
1753;SDS011;58380;48.312;9.246;2023-04-24T19:25:46;5.65;;;2.05;;
1753;SDS011;58380;48.312;9.246;2023-04-24T19:28:13;4.45;;;2.13;;
1753;SDS011;58380;48.312;9.246;2023-04-24T19:30:39;3.80;;;2.27;;
1753;SDS011;58380;48.312;9.246;2023-04-24T19:33:04;5.63;;;2.20;;
1753;SDS011;58380;48.312;9.246;2023-04-24T19:35:30;7.07;;;2.25;;
1753;SDS011;58380;48.312;9.246;2023-04-24T19:37:55;3.70;;;1.77;;
1753;SDS011;58380;48.312;9.246;2023-04-24T19:40:21;3.87;;;2.20;;
1753;SDS011;58380;48.312;9.246;2023-04-24T19:42:46;5.17;;;2.50;;
1753;SDS011;58380;48.312;9.246;2023-04-24T19:45:13;5.13;;;2.40;;
1753;SDS011;58380;48.312;9.246;2023-04-24T19:47:39;7.93;;;2.58;;
1753;SDS011;58380;48.312;9.246;2023-04-24T19:50:04;4.75;;;2.17;;
1753;SDS011;58380;48.312;9.246;2023-04-24T19:52:31;7.60;;;2.58;;
1753;SDS011;58380;48.312;9.246;2023-04-24T19:54:56;3.80;;;1.80;;
1753;SDS011;58380;48.312;9.246;2023-04-24T19:57:22;2.83;;;1.73;;
1753;SDS011;58380;48.312;9.246;2023-04-24T19:59:47;3.53;;;1.60;;
1753;SDS011;58380;48.312;9.246;2023-04-24T20:02:12;3.47;;;1.67;;
1753;SDS011;58380;48.312;9.246;2023-04-24T20:04:38;5.07;;;2.00;;
1753;SDS011;58380;48.312;9.246;2023-04-24T20:07:03;3.37;;;2.00;;
1753;SDS011;58380;48.312;9.246;2023-04-24T20:09:29;4.27;;;1.80;;
1753;SDS011;58380;48.312;9.246;2023-04-24T20:11:54;8.87;;;2.23;;
1753;SDS011;58380;48.312;9.246;2023-04-24T20:14:20;6.95;;;2.65;;
1753;SDS011;58380;48.312;9.246;2023-04-24T20:16:46;3.27;;;2.07;;
1753;SDS011;58380;48.312;9.246;2023-04-24T20:19:11;6.00;;;2.50;;
1753;SDS011;58380;48.312;9.246;2023-04-24T20:21:37;5.97;;;2.30;;
1753;SDS011;58380;48.312;9.246;2023-04-24T20:24:02;4.47;;;2.30;;
1753;SDS011;58380;48.312;9.246;2023-04-24T20:26:29;3.42;;;1.88;;
1753;SDS011;58380;48.312;9.246;2023-04-24T20:28:55;5.23;;;2.40;;
1753;SDS011;58380;48.312;9.246;2023-04-24T20:31:20;7.10;;;2.60;;
1753;SDS011;58380;48.312;9.246;2023-04-24T20:33:45;6.70;;;2.77;;
1753;SDS011;58380;48.312;9.246;2023-04-24T20:36:11;5.37;;;3.20;;
1753;SDS011;58380;48.312;9.246;2023-04-24T20:38:36;9.50;;;4.50;;
1753;SDS011;58380;48.312;9.246;2023-04-24T20:41:02;6.63;;;3.40;;
1753;SDS011;58380;48.312;9.246;2023-04-24T20:43:28;2.72;;;1.77;;
1753;SDS011;58380;48.312;9.246;2023-04-24T20:45:53;4.67;;;2.10;;
1753;SDS011;58380;48.312;9.246;2023-04-24T20:48:19;5.97;;;2.55;;
1753;SDS011;58380;48.312;9.246;2023-04-24T20:50:45;7.47;;;2.33;;
1753;SDS011;58380;48.312;9.246;2023-04-24T20:53:10;5.63;;;2.83;;
1753;SDS011;58380;48.312;9.246;2023-04-24T20:55:35;7.10;;;2.90;;
1753;SDS011;58380;48.312;9.246;2023-04-24T20:58:01;8.67;;;2.90;;
1753;SDS011;58380;48.312;9.246;2023-04-24T21:00:27;6.40;;;2.67;;
1753;SDS011;58380;48.312;9.246;2023-04-24T21:02:53;5.55;;;2.35;;
1753;SDS011;58380;48.312;9.246;2023-04-24T21:05:19;5.60;;;2.20;;
1753;SDS011;58380;48.312;9.246;2023-04-24T21:07:45;5.43;;;2.63;;
1753;SDS011;58380;48.312;9.246;2023-04-24T21:10:10;4.68;;;2.15;;
1753;SDS011;58380;48.312;9.246;2023-04-24T21:12:37;4.60;;;1.80;;
1753;SDS011;58380;48.312;9.246;2023-04-24T21:15:04;2.78;;;1.73;;
1753;SDS011;58380;48.312;9.246;2023-04-24T21:17:30;3.78;;;1.92;;
1753;SDS011;58380;48.312;9.246;2023-04-24T21:22:22;5.25;;;1.63;;
1753;SDS011;58380;48.312;9.246;2023-04-24T21:24:47;4.40;;;2.23;;
1753;SDS011;58380;48.312;9.246;2023-04-24T21:27:13;6.17;;;2.30;;
1753;SDS011;58380;48.312;9.246;2023-04-24T21:29:39;4.13;;;2.23;;
1753;SDS011;58380;48.312;9.246;2023-04-24T21:32:04;5.47;;;2.42;;
1753;SDS011;58380;48.312;9.246;2023-04-24T21:34:29;7.30;;;2.90;;
1753;SDS011;58380;48.312;9.246;2023-04-24T21:36:55;8.57;;;2.33;;
1753;SDS011;58380;48.312;9.246;2023-04-24T21:39:20;5.57;;;1.80;;
1753;SDS011;58380;48.312;9.246;2023-04-24T21:41:46;3.93;;;2.20;;
1753;SDS011;58380;48.312;9.246;2023-04-24T21:44:11;5.90;;;2.00;;
1753;SDS011;58380;48.312;9.246;2023-04-24T21:46:37;3.90;;;2.15;;
1753;SDS011;58380;48.312;9.246;2023-04-24T21:49:03;6.97;;;2.35;;
1753;SDS011;58380;48.312;9.246;2023-04-24T21:51:29;6.57;;;1.83;;
1753;SDS011;58380;48.312;9.246;2023-04-24T21:53:54;4.45;;;1.63;;
1753;SDS011;58380;48.312;9.246;2023-04-24T21:56:20;4.43;;;1.73;;
